Time,TemperatureF,DewpointF,PressureIn,WindDirection,WindDirectionDegrees,WindSpeedMPH,WindSpeedGustMPH,Humidity,HourlyPrecipIn,Conditions,Clouds,dailyrainin,SoftwareType,DateUTC
2013-04-12 00:09:00,71.9,62.0,29.80,SSE,150,3.0,4.0,71,0.00,,,0.00,weatherlink.com 1.10,2013-04-12 04:09:00,
2013-04-12 00:24:00,71.7,62.0,29.80,SSE,159,2.0,6.0,72,0.00,,,0.00,weatherlink.com 1.10,2013-04-12 04:24:00,
2013-04-12 00:39:00,71.3,62.0,29.81,SSE,166,2.0,5.0,73,0.00,,,0.00,weatherlink.com 1.10,2013-04-12 04:39:00,
2013-04-12 00:54:00,71.0,63.0,29.81,SE,138,2.0,5.0,75,0.00,,,0.00,weatherlink.com 1.10,2013-04-12 04:54:00,
2013-04-12 01:09:00,70.9,63.0,29.81,South,188,2.0,4.0,77,0.00,,,0.00,weatherlink.com 1.10,2013-04-12 05:09:00,
2013-04-12 01:24:00,70.8,64.0,29.81,ESE,122,1.0,4.0,78,0.00,,,0.00,weatherlink.com 1.10,2013-04-12 05:24:00,
2013-04-12 01:39:00,70.7,64.0,29.80,SE,132,4.0,6.0,79,0.00,,,0.00,weatherlink.com 1.10,2013-04-12 05:39:00,
2013-04-12 01:54:00,70.5,64.0,29.80,SSE,163,3.0,6.0,80,0.00,,,0.00,weatherlink.com 1.10,2013-04-12 05:54:00,
2013-04-12 02:09:00,70.4,64.0,29.80,South,186,0.0,6.0,81,0.00,,,0.00,weatherlink.com 1.10,2013-04-12 06:09:00,
2013-04-12 02:24:00,70.3,65.0,29.79,SE,146,1.0,4.0,82,0.00,,,0.00,weatherlink.com 1.10,2013-04-12 06:24:00,
2013-04-12 02:39:00,70.2,65.0,29.78,ESE,121,1.0,3.0,83,0.00,,,0.00,weatherlink.com 1.10,2013-04-12 06:39:00,
2013-04-12 02:54:00,70.1,65.0,29.77,SSE,166,1.0,4.0,83,0.00,,,0.00,weatherlink.com 1.10,2013-04-12 06:54:00,
2013-04-12 03:09:00,70.0,65.0,29.77,SSE,158,2.0,7.0,84,0.00,,,0.00,weatherlink.com 1.10,2013-04-12 07:09:00,
2013-04-12 03:24:00,69.7,65.0,29.76,SE,145,3.0,3.0,85,0.00,,,0.00,weatherlink.com 1.10,2013-04-12 07:24:00,
2013-04-12 03:39:00,69.9,65.0,29.76,SE,130,2.0,8.0,84,0.00,,,0.00,weatherlink.com 1.10,2013-04-12 07:39:00,
2013-04-12 03:54:00,69.9,65.0,29.76,South,191,2.0,6.0,85,0.00,,,0.00,weatherlink.com 1.10,2013-04-12 07:54:00,
2013-04-12 04:09:00,70.0,65.0,29.75,SE,139,2.0,5.0,84,0.00,,,0.00,weatherlink.com 1.10,2013-04-12 08:09:00,
2013-04-12 04:48:00,69.9,65.0,29.74,ESE,117,2.0,7.0,84,0.00,,,0.00,weatherlink.com 1.10,2013-04-12 08:48:00,
2013-04-12 04:54:00,70.0,65.0,29.74,South,187,2.0,4.0,84,0.00,,,0.00,weatherlink.com 1.10,2013-04-12 08:54:00,
2013-04-12 05:10:00,70.1,65.0,29.74,East,89,4.0,7.0,84,0.00,,,0.00,weatherlink.com 1.10,2013-04-12 09:10:00,
2013-04-12 05:25:00,70.1,65.0,29.73,SSE,160,2.0,4.0,83,0.00,,,0.00,weatherlink.com 1.10,2013-04-12 09:25:00,
2013-04-12 05:40:00,70.1,65.0,29.73,ENE,74,3.0,8.0,83,0.00,,,0.00,weatherlink.com 1.10,2013-04-12 09:40:00,
2013-04-12 05:55:00,70.3,65.0,29.73,ESE,115,3.0,8.0,83,0.00,,,0.00,weatherlink.com 1.10,2013-04-12 09:55:00,
2013-04-12 06:10:00,70.4,65.0,29.74,South,188,1.0,7.0,82,0.00,,,0.00,weatherlink.com 1.10,2013-04-12 10:10:00,
2013-04-12 06:25:00,68.9,66.0,29.74,SSE,165,0.0,5.0,89,0.03,,,0.03,weatherlink.com 1.10,2013-04-12 10:25:00,
2013-04-12 06:40:00,67.7,65.0,29.74,ESE,102,2.0,9.0,92,0.05,,,0.05,weatherlink.com 1.10,2013-04-12 10:40:00,
2013-04-12 06:55:00,67.0,65.0,29.74,SW,226,1.0,3.0,94,0.08,,,0.08,weatherlink.com 1.10,2013-04-12 10:55:00,
2013-04-12 07:10:00,66.6,65.0,29.75,South,175,2.0,4.0,95,0.10,,,0.10,weatherlink.com 1.10,2013-04-12 11:10:00,
2013-04-12 07:25:00,66.3,65.0,29.74,SSW,198,1.0,3.0,95,0.09,,,0.12,weatherlink.com 1.10,2013-04-12 11:25:00,
2013-04-12 07:40:00,66.1,65.0,29.74,South,176,0.0,4.0,96,0.08,,,0.13,weatherlink.com 1.10,2013-04-12 11:40:00,
2013-04-12 07:55:00,65.9,65.0,29.75,SSE,151,0.0,4.0,96,0.15,,,0.23,weatherlink.com 1.10,2013-04-12 11:55:00,
2013-04-12 08:10:00,65.8,65.0,29.75,SSE,168,0.0,3.0,97,0.21,,,0.31,weatherlink.com 1.10,2013-04-12 12:10:00,
2013-04-12 08:25:00,65.8,65.0,29.73,ESE,120,4.0,6.0,97,0.22,,,0.34,weatherlink.com 1.10,2013-04-12 12:25:00,
2013-04-12 08:40:00,65.9,65.0,29.75,South,188,1.0,2.0,97,0.21,,,0.34,weatherlink.com 1.10,2013-04-12 12:40:00,
2013-04-12 08:55:00,66.1,65.0,29.75,SSE,164,2.0,4.0,97,0.11,,,0.34,weatherlink.com 1.10,2013-04-12 12:55:00,
2013-04-12 09:10:00,66.5,65.0,29.74,ESE,120,5.0,6.0,96,0.03,,,0.34,weatherlink.com 1.10,2013-04-12 13:10:00,
2013-04-12 09:25:00,66.8,65.0,29.73,SW,222,2.0,7.0,95,0.00,,,0.34,weatherlink.com 1.10,2013-04-12 13:25:00,
2013-04-12 09:40:00,67.7,66.0,29.74,South,172,2.0,5.0,95,0.00,,,0.34,weatherlink.com 1.10,2013-04-12 13:40:00,
2013-04-12 09:55:00,68.2,66.0,29.73,East,94,4.0,6.0,92,0.00,,,0.34,weatherlink.com 1.10,2013-04-12 13:55:00,
2013-04-12 10:10:00,68.5,67.0,29.73,South,173,1.0,5.0,94,0.00,,,0.34,weatherlink.com 1.10,2013-04-12 14:10:00,
2013-04-12 10:25:00,69.9,67.0,29.73,ESE,117,4.0,6.0,89,0.00,,,0.34,weatherlink.com 1.10,2013-04-12 14:25:00,
2013-04-12 10:55:00,71.3,67.0,29.71,South,181,1.0,7.0,86,0.00,,,0.34,weatherlink.com 1.10,2013-04-12 14:55:00,
2013-04-12 11:10:00,71.5,67.0,29.72,SE,127,2.0,6.0,86,0.00,,,0.34,weatherlink.com 1.10,2013-04-12 15:10:00,
2013-04-12 11:25:00,69.5,67.0,29.73,SSE,156,1.0,4.0,91,0.03,,,0.37,weatherlink.com 1.10,2013-04-12 15:25:00,
2013-04-12 11:40:00,69.9,69.0,29.72,ESE,102,2.0,2.0,95,0.05,,,0.39,weatherlink.com 1.10,2013-04-12 15:40:00,
2013-04-12 11:55:00,71.1,68.0,29.71,SSE,167,2.0,6.0,91,0.05,,,0.39,weatherlink.com 1.10,2013-04-12 15:55:00,
2013-04-12 12:10:00,72.1,69.0,29.71,South,174,2.0,3.0,89,0.05,,,0.39,weatherlink.com 1.10,2013-04-12 16:10:00,
2013-04-12 12:25:00,72.7,69.0,29.69,SSE,150,3.0,7.0,87,0.01,,,0.39,weatherlink.com 1.10,2013-04-12 16:25:00,
2013-04-12 12:40:00,74.9,69.0,29.69,South,188,1.0,6.0,82,0.00,,,0.39,weatherlink.com 1.10,2013-04-12 16:40:00,
2013-04-12 12:55:00,76.3,69.0,29.68,ESE,114,5.0,8.0,77,0.00,,,0.39,weatherlink.com 1.10,2013-04-12 16:55:00,
2013-04-12 13:10:00,77.2,70.0,29.68,SE,133,3.0,5.0,77,0.00,,,0.39,weatherlink.com 1.10,2013-04-12 17:10:00,
2013-04-12 13:25:00,77.0,69.0,29.66,SSE,157,2.0,7.0,75,0.00,,,0.39,weatherlink.com 1.10,2013-04-12 17:25:00,
2013-04-12 13:40:00,78.7,69.0,29.66,South,191,1.0,5.0,72,0.00,,,0.39,weatherlink.com 1.10,2013-04-12 17:40:00,
2013-04-12 13:56:00,80.3,69.0,29.66,South,170,1.0,6.0,68,0.00,,,0.39,weatherlink.com 1.10,2013-04-12 17:56:00,
2013-04-12 15:26:00,83.2,66.0,29.62,South,170,0.0,4.0,56,0.00,,,0.39,weatherlink.com 1.10,2013-04-12 19:26:00,
2013-04-12 16:26:00,84.0,63.0,29.60,SSW,207,1.0,2.0,50,0.00,,,0.39,weatherlink.com 1.10,2013-04-12 20:26:00,
2013-04-12 16:41:00,83.1,63.0,29.59,SW,229,1.0,4.0,50,0.00,,,0.39,weatherlink.com 1.10,2013-04-12 20:41:00,
2013-04-12 16:56:00,83.9,63.0,29.60,SW,231,3.0,4.0,49,0.00,,,0.39,weatherlink.com 1.10,2013-04-12 20:56:00,
2013-04-12 17:11:00,83.1,63.0,29.59,SSE,163,1.0,4.0,50,0.00,,,0.39,weatherlink.com 1.10,2013-04-12 21:11:00,
2013-04-12 17:41:00,82.3,64.0,29.59,SSW,203,0.0,2.0,55,0.00,,,0.39,weatherlink.com 1.10,2013-04-12 21:41:00,
2013-04-12 17:56:00,81.0,65.0,29.60,South,186,1.0,2.0,58,0.00,,,0.39,weatherlink.com 1.10,2013-04-12 21:56:00,
2013-04-12 18:11:00,79.7,65.0,29.60,SW,231,0.0,1.0,61,0.00,,,0.39,weatherlink.com 1.10,2013-04-12 22:11:00,
2013-04-12 18:26:00,79.0,65.0,29.60,SW,231,0.0,0.0,63,0.00,,,0.39,weatherlink.com 1.10,2013-04-12 22:26:00,
2013-04-12 18:56:00,78.6,63.0,29.60,SW,231,0.0,1.0,60,0.00,,,0.39,weatherlink.com 1.10,2013-04-12 22:56:00,
2013-04-12 19:11:00,78.3,63.0,29.60,SW,231,0.0,0.0,60,0.00,,,0.39,weatherlink.com 1.10,2013-04-12 23:11:00,
2013-04-12 19:26:00,77.1,63.0,29.61,SW,231,0.0,0.0,63,0.00,,,0.39,weatherlink.com 1.10,2013-04-12 23:26:00,
2013-04-12 19:41:00,75.5,62.0,29.61,SW,231,0.0,0.0,64,0.00,,,0.39,weatherlink.com 1.10,2013-04-12 23:41:00,
2013-04-12 20:11:00,73.7,63.0,29.61,SW,231,0.0,0.0,69,0.00,,,0.39,weatherlink.com 1.10,2013-04-13 00:11:00,
2013-04-12 20:26:00,73.2,64.0,29.62,SW,231,0.0,0.0,73,0.00,,,0.39,weatherlink.com 1.10,2013-04-13 00:26:00,
2013-04-12 20:41:00,72.6,63.0,29.64,SW,217,2.0,4.0,73,0.00,,,0.39,weatherlink.com 1.10,2013-04-13 00:41:00,
2013-04-12 20:56:00,74.4,57.0,29.64,SSW,210,0.0,2.0,54,0.00,,,0.39,weatherlink.com 1.10,2013-04-13 00:56:00,
2013-04-12 21:11:00,73.3,56.0,29.64,SW,221,0.0,1.0,54,0.00,,,0.39,weatherlink.com 1.10,2013-04-13 01:11:00,
2013-04-12 21:26:00,71.6,54.0,29.65,SW,223,0.0,1.0,55,0.00,,,0.39,weatherlink.com 1.10,2013-04-13 01:26:00,
2013-04-12 21:41:00,69.8,52.0,29.66,SW,221,0.0,1.0,53,0.00,,,0.39,weatherlink.com 1.10,2013-04-13 01:41:00,
2013-04-12 21:56:00,68.4,51.0,29.66,SW,221,0.0,0.0,55,0.00,,,0.39,weatherlink.com 1.10,2013-04-13 01:56:00,
2013-04-12 22:11:00,67.3,52.0,29.67,SW,222,0.0,0.0,58,0.00,,,0.39,weatherlink.com 1.10,2013-04-13 02:11:00,
2013-04-12 22:27:00,66.8,51.0,29.68,SW,221,0.0,0.0,58,0.00,,,0.39,weatherlink.com 1.10,2013-04-13 02:27:00,
2013-04-12 22:41:00,67.8,48.0,29.68,SW,215,0.0,0.0,49,0.00,,,0.39,weatherlink.com 1.10,2013-04-13 02:41:00,
2013-04-12 22:56:00,69.5,47.0,29.69,SW,217,1.0,3.0,44,0.00,,,0.39,weatherlink.com 1.10,2013-04-13 02:56:00,
2013-04-12 23:11:00,69.2,49.0,29.70,SW,221,0.0,1.0,48,0.00,,,0.39,weatherlink.com 1.10,2013-04-13 03:11:00,
2013-04-12 23:26:00,68.1,49.0,29.71,SW,232,0.0,2.0,51,0.00,,,0.39,weatherlink.com 1.10,2013-04-13 03:26:00,
2013-04-12 23:56:00,66.9,50.0,29.72,SW,232,0.0,1.0,54,0.00,,,0.39,weatherlink.com 1.10,2013-04-13 03:56:00,